Time;durP1;ratioP1;P1;durP2;ratioP2;P2;SDS_P1;SDS_P2;PMS_P1;PMS_P2;Temp;Humidity;BMP_temperature;BMP_pressure;BME280_temperature;BME280_humidity;BME280_pressure;Samples;Min_cycle;Max_cycle;Signal;HPM_P1;HPM_P2
2022/11/04 00:00:37;;;;;;;1.95;1.00;;;9.30;99.90;;;;;;5023460;28;20580;-84
2022/11/04 00:03:04;;;;;;;0.90;0.80;;;9.20;99.90;;;;;;5018264;28;20053;-84
2022/11/04 00:05:32;;;;;;;1.42;1.10;;;9.20;99.90;;;;;;5027536;28;20052;-84
2022/11/04 00:13:30;;;;;;;0.82;0.80;;;9.30;99.90;;;;;;5034369;28;20493;-86
2022/11/04 00:18:47;;;;;;;1.80;0.82;;;9.30;99.90;;;;;;5040874;28;20046;-88
2022/11/04 00:29:31;;;;;;;1.35;0.80;;;9.40;99.90;;;;;;5039791;28;20049;-90
2022/11/04 00:34:42;;;;;;;1.52;1.10;;;9.30;99.90;;;;;;5023117;28;20060;-89
2022/11/04 00:37:09;;;;;;;0.95;0.85;;;9.40;99.90;;;;;;5051269;28;20103;-90
2022/11/04 00:39:36;;;;;;;1.40;0.90;;;9.40;99.90;;;;;;5018102;28;20045;-89
2022/11/04 00:42:04;;;;;;;1.35;1.15;;;9.40;99.90;;;;;;5036585;28;20060;-90
2022/11/04 00:44:32;;;;;;;1.50;1.02;;;9.40;99.90;;;;;;5032602;28;20069;-90
2022/11/04 00:46:59;;;;;;;1.63;1.00;;;9.40;99.90;;;;;;5028888;28;20057;-90
2022/11/04 00:49:26;;;;;;;1.05;0.82;;;9.40;99.90;;;;;;5010294;28;20139;-91
2022/11/04 00:51:54;;;;;;;1.10;1.00;;;9.40;99.90;;;;;;5039415;28;20045;-90
2022/11/04 00:54:21;;;;;;;2.08;1.13;;;9.40;99.90;;;;;;5035854;28;20362;-90
2022/11/04 00:56:48;;;;;;;2.00;1.30;;;9.40;99.90;;;;;;5045558;28;20081;-90
2022/11/04 00:59:16;;;;;;;1.45;0.98;;;9.40;99.90;;;;;;5014831;28;20201;-89
2022/11/04 01:01:43;;;;;;;1.10;0.98;;;9.40;99.90;;;;;;5032483;28;20111;-90
2022/11/04 01:04:11;;;;;;;0.75;0.70;;;9.50;99.90;;;;;;5017956;28;20049;-89
2022/11/04 01:06:38;;;;;;;0.88;0.70;;;9.40;99.90;;;;;;5032608;28;20156;-89
2022/11/04 01:09:09;;;;;;;1.30;1.00;;;9.40;99.90;;;;;;5048410;28;20068;-88
2022/11/04 01:11:38;;;;;;;1.90;0.93;;;9.40;99.90;;;;;;5024997;28;20041;-89
2022/11/04 01:14:06;;;;;;;1.20;1.05;;;9.40;99.90;;;;;;5033056;28;20059;-88
2022/11/04 01:16:32;;;;;;;1.10;1.00;;;9.40;99.90;;;;;;5030921;28;20565;-87
2022/11/04 01:19:00;;;;;;;1.15;1.05;;;9.40;99.90;;;;;;5024171;28;20113;-89
2022/11/04 01:21:27;;;;;;;1.30;1.00;;;9.40;99.90;;;;;;5022759;28;20778;-88
2022/11/04 01:23:54;;;;;;;1.08;0.93;;;9.40;99.90;;;;;;5029598;28;20053;-86
2022/11/04 01:26:22;;;;;;;1.77;1.20;;;9.40;99.90;;;;;;4998639;28;20093;-87
2022/11/04 01:28:50;;;;;;;1.25;0.85;;;9.40;99.90;;;;;;4996066;28;20156;-86
2022/11/04 01:31:21;;;;;;;0.77;0.77;;;9.40;99.90;;;;;;5024375;28;20400;-86
2022/11/04 01:33:49;;;;;;;0.60;0.60;;;9.40;99.90;;;;;;5027707;28;20048;-85
2022/11/04 01:36:16;;;;;;;0.70;0.70;;;9.40;99.90;;;;;;5030616;28;20057;-86
2022/11/04 01:38:43;;;;;;;0.98;0.60;;;9.40;99.90;;;;;;5025345;28;20041;-87
2022/11/04 01:41:18;;;;;;;0.90;0.73;;;9.30;99.90;;;;;;5016173;28;20064;-88
2022/11/04 01:43:49;;;;;;;0.75;0.65;;;9.30;99.90;;;;;;4998394;28;20139;-88
2022/11/04 01:46:35;;;;;;;0.65;0.57;;;9.30;99.90;;;;;;5050875;28;20680;-89
2022/11/04 01:49:17;;;;;;;1.08;0.60;;;9.30;99.90;;;;;;5045599;28;20125;-85
2022/11/04 01:51:44;;;;;;;0.95;0.80;;;9.30;99.90;;;;;;5018369;28;20417;-87
2022/11/04 01:54:11;;;;;;;0.88;0.80;;;9.30;99.90;;;;;;5032923;28;20079;-87
2022/11/04 01:56:38;;;;;;;1.17;0.75;;;9.30;99.90;;;;;;5012659;28;20046;-87
2022/11/04 01:59:07;;;;;;;1.50;0.70;;;9.20;99.90;;;;;;5020884;28;20056;-88
2022/11/04 02:01:35;;;;;;;1.27;0.80;;;9.20;99.90;;;;;;5010239;28;20065;-89
2022/11/04 02:06:48;;;;;;;0.75;0.75;;;9.20;99.90;;;;;;5028467;28;20054;-90
2022/11/04 02:09:16;;;;;;;0.65;0.55;;;9.10;99.90;;;;;;5028543;28;20211;-89
2022/11/04 02:14:30;;;;;;;0.47;0.47;;;9.20;99.90;;;;;;5049813;28;20055;-89
2022/11/04 02:17:05;;;;;;;0.80;0.40;;;9.20;99.90;;;;;;5034523;28;20053;-90
2022/11/04 02:19:43;;;;;;;0.65;0.60;;;9.20;99.90;;;;;;5037099;28;20053;-90
2022/11/04 02:22:47;;;;;;;0.40;0.40;;;9.20;99.90;;;;;;5048752;28;20045;-90
2022/11/04 02:25:23;;;;;;;0.52;0.40;;;9.20;99.90;;;;;;5039313;28;20053;-91
2022/11/04 02:28:10;;;;;;;1.13;0.57;;;9.20;99.90;;;;;;5034052;28;20053;-90
2022/11/04 02:31:01;;;;;;;0.50;0.40;;;9.20;99.90;;;;;;5036168;28;20051;-90
2022/11/04 02:33:33;;;;;;;0.63;0.50;;;9.20;99.90;;;;;;5031923;28;20054;-91
2022/11/04 02:36:08;;;;;;;1.33;0.60;;;9.20;99.90;;;;;;5032110;28;20049;-91
2022/11/04 02:39:05;;;;;;;0.73;0.40;;;9.20;99.90;;;;;;5034848;28;20049;-91
2022/11/04 02:41:41;;;;;;;0.80;0.60;;;9.10;99.90;;;;;;5034182;28;20564;-90
2022/11/04 02:44:17;;;;;;;0.50;0.50;;;9.10;99.90;;;;;;5036751;28;20059;-90
2022/11/04 02:47:05;;;;;;;0.40;0.38;;;9.10;99.90;;;;;;5051923;28;20052;-90
2022/11/04 02:49:54;;;;;;;1.23;0.70;;;9.10;99.90;;;;;;5035000;28;20084;-90
2022/11/04 02:52:29;;;;;;;1.25;0.88;;;9.00;99.90;;;;;;5043354;28;20071;-90
2022/11/04 02:55:06;;;;;;;1.73;1.20;;;9.00;99.90;;;;;;5032887;28;20077;-91
2022/11/04 02:57:34;;;;;;;2.17;1.15;;;9.00;99.90;;;;;;5035599;28;20056;-90
2022/11/04 03:00:08;;;;;;;1.90;1.50;;;9.00;99.90;;;;;;5035492;28;20041;-90
2022/11/04 03:02:54;;;;;;;2.58;1.80;;;9.00;99.90;;;;;;5051347;28;20045;-89
2022/11/04 03:05:36;;;;;;;1.90;1.52;;;9.00;99.90;;;;;;5016623;28;20420;-88
2022/11/04 03:08:14;;;;;;;4.47;2.42;;;9.00;99.90;;;;;;5038010;28;20055;-88
2022/11/04 03:10:42;;;;;;;2.75;2.13;;;9.00;99.90;;;;;;5016137;28;20057;-88
2022/11/04 03:13:16;;;;;;;3.53;2.50;;;9.00;99.90;;;;;;5040458;28;20053;-89
2022/11/04 03:15:51;;;;;;;3.22;2.45;;;9.00;99.90;;;;;;5039847;28;20144;-87
2022/11/04 03:18:34;;;;;;;3.17;2.50;;;9.00;99.90;;;;;;5039843;28;20041;-88
2022/11/04 03:21:01;;;;;;;4.45;3.33;;;9.00;99.90;;;;;;5052612;28;20049;-88
2022/11/04 03:23:28;;;;;;;3.45;2.97;;;9.00;99.90;;;;;;5010241;28;20046;-88
2022/11/04 03:26:00;;;;;;;5.00;3.97;;;9.00;99.90;;;;;;5020673;28;20056;-87
2022/11/04 03:28:47;;;;;;;4.57;3.80;;;9.00;99.90;;;;;;5031893;28;20045;-88
2022/11/04 03:31:23;;;;;;;6.15;4.40;;;9.00;99.90;;;;;;5017308;28;20061;-88
2022/11/04 03:33:50;;;;;;;5.13;3.90;;;9.00;99.90;;;;;;5019435;28;20496;-86
2022/11/04 03:36:18;;;;;;;6.20;4.53;;;8.90;99.90;;;;;;5013795;28;20145;-87
2022/11/04 03:38:44;;;;;;;5.55;4.45;;;8.90;99.90;;;;;;5018785;28;20060;-87
2022/11/04 03:41:22;;;;;;;6.25;4.45;;;8.80;99.90;;;;;;5018199;28;20144;-86
2022/11/04 03:43:48;;;;;;;4.63;3.90;;;8.80;99.90;;;;;;5018354;28;20057;-86
2022/11/04 03:46:15;;;;;;;4.40;3.45;;;8.80;99.90;;;;;;5025738;28;20049;-86
2022/11/04 03:48:44;;;;;;;3.95;3.55;;;8.70;99.90;;;;;;5014829;28;20409;-85
2022/11/04 03:51:11;;;;;;;3.80;3.22;;;8.70;99.90;;;;;;5024921;28;20053;-85
2022/11/04 03:53:38;;;;;;;3.95;3.35;;;8.70;99.90;;;;;;5033655;28;20044;-85
2022/11/04 03:56:24;;;;;;;4.03;2.55;;;8.70;99.90;;;;;;5035881;28;20156;-86
2022/11/04 03:59:03;;;;;;;4.43;2.78;;;8.70;99.90;;;;;;5030150;28;20053;-86
2022/11/04 04:01:38;;;;;;;4.75;3.22;;;8.70;99.90;;;;;;5031685;28;20077;-85
2022/11/04 04:04:19;;;;;;;3.60;2.42;;;8.70;99.90;;;;;;5031469;28;20488;-86
2022/11/04 04:06:46;;;;;;;3.53;2.50;;;8.60;99.90;;;;;;5014952;28;20041;-85
2022/11/04 04:09:36;;;;;;;3.35;2.67;;;8.60;99.90;;;;;;5012966;28;20440;-84
2022/11/04 04:12:23;;;;;;;3.60;2.50;;;8.60;99.90;;;;;;5038196;28;20411;-84
2022/11/04 04:15:12;;;;;;;2.72;2.10;;;8.50;99.90;;;;;;5028089;28;20647;-84
2022/11/04 04:17:46;;;;;;;1.90;1.55;;;8.50;99.90;;;;;;5028116;28;20076;-84
2022/11/04 04:20:18;;;;;;;2.30;1.55;;;8.60;99.90;;;;;;5029161;28;20061;-85
2022/11/04 04:28:38;;;;;;;2.53;1.73;;;8.50;99.90;;;;;;5014848;28;20049;-85
2022/11/04 04:31:05;;;;;;;3.25;1.85;;;8.40;99.90;;;;;;4996314;28;20046;-85
2022/11/04 04:33:33;;;;;;;2.42;1.67;;;8.40;99.90;;;;;;5032282;28;20055;-84
2022/11/04 04:36:00;;;;;;;3.08;1.60;;;8.40;99.90;;;;;;5040806;28;20056;-84
2022/11/04 04:47:03;;;;;;;2.00;1.20;;;8.40;99.90;;;;;;5025146;28;20053;-84
2022/11/04 04:49:33;;;;;;;3.20;1.38;;;8.30;99.90;;;;;;5009211;28;20477;-83
2022/11/04 04:52:05;;;;;;;2.22;1.20;;;8.30;99.90;;;;;;5041697;28;20048;-83
2022/11/04 04:54:32;;;;;;;2.58;1.60;;;8.30;99.90;;;;;;5026832;28;20045;-84
2022/11/04 04:56:59;;;;;;;1.50;1.40;;;8.30;99.90;;;;;;5032217;28;20045;-84
2022/11/04 04:59:26;;;;;;;2.28;1.58;;;8.30;99.90;;;;;;5015160;28;20049;-84
2022/11/04 05:01:53;;;;;;;2.75;1.45;;;8.20;99.90;;;;;;5030670;28;20045;-84
2022/11/04 05:04:20;;;;;;;2.25;1.70;;;8.20;99.90;;;;;;5039976;28;20057;-84
2022/11/04 05:06:48;;;;;;;2.63;2.13;;;8.20;99.90;;;;;;5044908;28;20051;-83
2022/11/04 05:09:16;;;;;;;3.50;1.65;;;8.10;99.90;;;;;;5032210;28;20056;-83
2022/11/04 05:11:43;;;;;;;2.83;2.00;;;8.10;99.90;;;;;;5039352;28;20049;-83
2022/11/04 05:14:10;;;;;;;4.10;1.95;;;8.10;99.90;;;;;;5042431;28;20076;-84
2022/11/04 05:16:37;;;;;;;2.08;1.45;;;8.10;99.90;;;;;;4995076;28;20073;-83
2022/11/04 05:19:06;;;;;;;2.67;1.85;;;8.10;99.90;;;;;;5022632;28;20041;-85
2022/11/04 05:21:33;;;;;;;4.32;1.63;;;8.10;99.90;;;;;;5010848;28;20056;-84
2022/11/04 05:24:00;;;;;;;1.48;1.27;;;8.10;99.90;;;;;;5010966;28;20052;-83
2022/11/04 05:26:27;;;;;;;1.38;1.20;;;8.00;99.90;;;;;;5020760;28;20719;-83
2022/11/04 05:28:54;;;;;;;2.33;1.13;;;8.00;99.90;;;;;;5011415;28;20486;-84
2022/11/04 05:31:22;;;;;;;2.45;1.70;;;8.00;99.90;;;;;;5010235;28;20440;-83
2022/11/04 05:33:48;;;;;;;2.83;2.00;;;7.90;99.90;;;;;;5042787;28;20137;-84
2022/11/04 05:36:15;;;;;;;3.00;1.70;;;7.90;99.90;;;;;;5025042;28;20053;-83
2022/11/04 05:38:42;;;;;;;2.63;1.90;;;7.90;99.90;;;;;;5011672;28;20435;-83
2022/11/04 05:41:10;;;;;;;4.22;3.00;;;7.90;99.90;;;;;;5014604;28;20117;-83
2022/11/04 05:43:37;;;;;;;4.32;3.10;;;7.80;99.90;;;;;;5011499;28;20060;-83
2022/11/04 05:46:05;;;;;;;4.88;3.55;;;7.70;99.90;;;;;;5038795;28;20132;-83
2022/11/04 05:48:32;;;;;;;5.68;4.22;;;7.70;99.90;;;;;;5028887;28;20131;-84
2022/11/04 05:51:05;;;;;;;;;;;7.70;99.90;;;;;;5016898;28;20573;-83
2022/11/04 05:53:32;;;;;;;6.30;4.90;;;7.70;99.90;;;;;;5038607;28;19927;-84
2022/11/04 05:55:59;;;;;;;6.53;4.97;;;7.70;99.90;;;;;;5030268;28;20056;-84
2022/11/04 05:58:26;;;;;;;5.43;4.75;;;7.60;99.90;;;;;;5031545;28;20052;-83
2022/11/04 06:00:53;;;;;;;7.75;5.70;;;7.60;99.90;;;;;;5046433;28;20071;-83
2022/11/04 06:03:20;;;;;;;8.63;6.35;;;7.60;99.90;;;;;;5019129;28;20045;-84
2022/11/04 06:05:47;;;;;;;6.95;4.55;;;7.60;99.90;;;;;;5016645;28;20422;-83
2022/11/04 06:08:14;;;;;;;5.32;4.53;;;7.60;99.90;;;;;;5015458;28;20046;-84
2022/11/04 06:10:42;;;;;;;8.93;5.28;;;7.60;99.90;;;;;;5031891;28;20064;-84
2022/11/04 06:13:09;;;;;;;6.88;4.82;;;7.60;99.90;;;;;;5033136;28;20045;-83
2022/11/04 06:15:36;;;;;;;6.45;4.63;;;7.50;99.90;;;;;;5029134;28;20045;-83
2022/11/04 06:18:03;;;;;;;6.35;4.57;;;7.50;99.90;;;;;;5029841;28;20527;-82
2022/11/04 06:20:30;;;;;;;7.60;5.05;;;7.50;99.90;;;;;;5027471;28;20500;-82
2022/11/04 06:22:57;;;;;;;5.18;3.75;;;7.50;99.90;;;;;;5026189;28;20049;-82
2022/11/04 06:25:24;;;;;;;5.75;4.28;;;7.50;99.90;;;;;;5044285;28;20056;-83
2022/11/04 06:27:50;;;;;;;4.38;3.80;;;7.50;99.90;;;;;;5011704;28;20060;-83
2022/11/04 06:30:17;;;;;;;5.47;3.97;;;7.40;99.90;;;;;;5017255;28;20290;-83
2022/11/04 06:32:44;;;;;;;5.95;3.83;;;7.50;99.90;;;;;;5026252;28;20049;-83
2022/11/04 06:35:11;;;;;;;4.53;3.00;;;7.40;99.90;;;;;;5025667;28;20050;-83
2022/11/04 06:37:38;;;;;;;5.07;2.88;;;7.40;99.90;;;;;;5014196;28;20052;-83
2022/11/04 06:40:06;;;;;;;2.72;2.20;;;7.40;99.90;;;;;;5027000;28;20080;-83
2022/11/04 06:42:33;;;;;;;3.97;2.90;;;7.40;99.90;;;;;;5029931;28;20076;-83
2022/11/04 06:45:00;;;;;;;3.35;2.83;;;7.30;99.90;;;;;;5024750;28;20155;-83
2022/11/04 06:47:26;;;;;;;3.85;2.90;;;7.30;99.90;;;;;;5029768;28;20528;-83
2022/11/04 06:49:53;;;;;;;3.97;2.85;;;7.30;99.90;;;;;;5031863;28;20357;-83
2022/11/04 06:52:20;;;;;;;4.78;3.15;;;7.30;99.90;;;;;;5009541;28;20044;-81
2022/11/04 06:54:47;;;;;;;2.90;2.38;;;7.30;99.90;;;;;;5013413;28;20409;-82
2022/11/04 06:57:14;;;;;;;4.30;2.83;;;7.30;99.90;;;;;;5027563;28;20045;-83
2022/11/04 06:59:40;;;;;;;3.60;2.33;;;7.30;99.90;;;;;;5007321;28;20141;-82
2022/11/04 07:02:09;;;;;;;3.08;2.25;;;7.30;99.90;;;;;;5019519;28;20072;-83
2022/11/04 07:04:37;;;;;;;2.70;2.17;;;7.20;99.90;;;;;;5041583;28;20412;-83
2022/11/04 07:07:04;;;;;;;2.90;2.33;;;7.20;99.90;;;;;;5028035;28;20053;-83
2022/11/04 07:09:31;;;;;;;5.32;3.30;;;7.20;99.90;;;;;;5042001;28;20047;-82
2022/11/04 07:12:00;;;;;;;3.95;2.85;;;7.20;99.90;;;;;;5001883;28;20056;-82
2022/11/04 07:14:27;;;;;;;3.83;2.72;;;7.10;99.90;;;;;;5027620;28;20060;-83
2022/11/04 07:16:54;;;;;;;4.25;2.70;;;7.20;99.90;;;;;;5004675;28;20119;-84
2022/11/04 07:19:21;;;;;;;2.72;2.00;;;7.20;99.90;;;;;;5036888;28;20069;-83
2022/11/04 07:21:48;;;;;;;2.50;1.98;;;7.10;99.90;;;;;;5016691;28;20413;-83
2022/11/04 07:24:15;;;;;;;2.78;1.90;;;7.10;99.90;;;;;;5003896;28;20046;-82
2022/11/04 07:26:42;;;;;;;3.03;2.50;;;7.10;99.90;;;;;;5015588;28;20045;-83
2022/11/04 07:29:10;;;;;;;3.60;2.30;;;7.10;99.90;;;;;;5015934;28;20045;-83
2022/11/04 07:31:37;;;;;;;4.57;2.47;;;7.10;99.90;;;;;;5011903;28;20055;-83
2022/11/04 07:34:05;;;;;;;5.80;3.30;;;7.00;99.90;;;;;;5018709;28;20401;-82
2022/11/04 07:36:31;;;;;;;4.72;3.03;;;7.00;99.90;;;;;;5041229;28;20052;-83
2022/11/04 07:38:59;;;;;;;4.38;3.45;;;7.10;99.90;;;;;;5012117;28;20065;-82
2022/11/04 07:41:26;;;;;;;4.70;3.00;;;7.10;99.90;;;;;;5017955;28;20050;-79
2022/11/04 07:43:53;;;;;;;4.78;3.20;;;7.10;99.90;;;;;;5039162;28;20115;-81
2022/11/04 07:46:20;;;;;;;3.90;2.42;;;7.10;99.90;;;;;;5042955;28;20049;-81
2022/11/04 07:48:48;;;;;;;3.95;2.97;;;7.10;99.90;;;;;;5013454;28;20055;-81
2022/11/04 07:51:16;;;;;;;3.67;3.10;;;7.20;99.90;;;;;;5028572;28;20057;-80
2022/11/04 07:53:43;;;;;;;4.32;2.92;;;7.20;99.90;;;;;;5009347;28;20449;-84
2022/11/04 07:56:13;;;;;;;4.55;2.90;;;7.20;99.90;;;;;;5036792;28;20118;-83
2022/11/04 07:58:40;;;;;;;4.65;3.45;;;7.20;99.90;;;;;;5037876;28;20077;-84
2022/11/04 08:01:09;;;;;;;5.22;3.35;;;7.20;99.90;;;;;;5028173;28;20497;-83
2022/11/04 08:03:37;;;;;;;4.55;3.42;;;7.30;99.90;;;;;;5013882;28;20500;-83
2022/11/04 08:06:04;;;;;;;6.25;4.13;;;7.30;99.90;;;;;;5024141;28;20049;-84
2022/11/04 08:08:31;;;;;;;4.25;3.15;;;7.30;99.90;;;;;;5029283;28;20138;-84
2022/11/04 08:11:06;;;;;;;5.18;3.67;;;7.40;99.90;;;;;;5046667;28;20053;-84
2022/11/04 08:13:40;;;;;;;5.28;3.58;;;7.40;99.90;;;;;;5000763;28;20136;-83
2022/11/04 08:16:14;;;;;;;3.67;2.90;;;7.40;99.90;;;;;;5003213;28;20064;-83
2022/11/04 08:18:41;;;;;;;3.83;3.17;;;7.50;99.90;;;;;;5029782;28;20049;-83
2022/11/04 08:21:09;;;;;;;5.57;3.70;;;7.50;99.90;;;;;;5029485;28;20060;-83
2022/11/04 08:23:37;;;;;;;4.57;3.45;;;7.50;99.90;;;;;;5026642;28;20060;-83
2022/11/04 08:26:08;;;;;;;6.57;3.83;;;7.50;99.90;;;;;;5018080;28;20148;-83
2022/11/04 08:28:35;;;;;;;4.18;3.70;;;7.50;99.90;;;;;;5027232;28;20052;-83
2022/11/04 08:31:05;;;;;;;4.95;3.40;;;7.60;99.90;;;;;;5019482;28;20135;-83
2022/11/04 08:33:32;;;;;;;4.85;3.67;;;7.60;99.90;;;;;;5007297;28;20465;-82
2022/11/04 08:36:26;;;;;;;4.25;3.33;;;7.60;99.90;;;;;;5020977;28;20585;-83
2022/11/04 08:38:53;;;;;;;5.00;3.65;;;7.70;99.90;;;;;;5027641;28;20053;-82
2022/11/04 08:41:22;;;;;;;7.05;3.72;;;7.70;99.90;;;;;;5026627;28;20137;-84
2022/11/04 08:43:49;;;;;;;4.72;3.75;;;7.80;99.90;;;;;;5046001;28;20049;-83
2022/11/04 08:46:16;;;;;;;3.78;3.20;;;7.80;99.90;;;;;;5008790;28;20634;-86
2022/11/04 08:48:43;;;;;;;5.45;3.42;;;7.80;99.90;;;;;;5020688;28;20056;-84
2022/11/04 08:51:13;;;;;;;5.05;3.08;;;7.90;99.90;;;;;;5028370;28;20361;-83
2022/11/04 08:53:41;;;;;;;5.38;3.60;;;7.90;99.90;;;;;;5022890;28;20041;-84
2022/11/04 08:56:10;;;;;;;6.28;3.83;;;8.00;99.90;;;;;;5027202;28;20110;-82
2022/11/04 08:58:36;;;;;;;6.45;3.80;;;8.10;99.90;;;;;;5011036;28;20049;-84
2022/11/04 09:01:04;;;;;;;4.93;3.10;;;8.10;99.90;;;;;;5027701;28;20056;-83
2022/11/04 09:03:33;;;;;;;4.20;2.90;;;8.10;99.90;;;;;;5009628;28;20079;-82
2022/11/04 09:06:00;;;;;;;4.28;2.40;;;8.20;99.90;;;;;;5014552;28;20044;-82
2022/11/04 09:08:27;;;;;;;3.45;2.17;;;8.30;99.90;;;;;;5014383;28;20377;-82
2022/11/04 09:10:54;;;;;;;4.38;3.17;;;8.30;99.90;;;;;;5002116;28;20160;-83
2022/11/04 09:13:21;;;;;;;3.60;2.38;;;8.30;99.90;;;;;;5025951;28;20164;-83
2022/11/04 09:15:49;;;;;;;4.47;2.80;;;8.40;99.90;;;;;;5008100;28;20045;-83
2022/11/04 09:18:16;;;;;;;3.30;2.20;;;8.40;99.90;;;;;;5009743;28;20140;-83
2022/11/04 09:20:43;;;;;;;5.30;2.55;;;8.40;99.90;;;;;;5025865;28;20048;-82
2022/11/04 09:23:10;;;;;;;5.55;3.13;;;8.50;99.90;;;;;;5006103;28;20042;-83
2022/11/04 09:25:38;;;;;;;5.15;3.38;;;8.60;99.90;;;;;;4994407;28;20148;-83
2022/11/04 09:28:05;;;;;;;5.05;3.03;;;8.60;99.90;;;;;;5020007;28;20054;-83
2022/11/04 09:30:32;;;;;;;5.00;2.80;;;8.70;99.90;;;;;;5014649;28;20147;-82
2022/11/04 09:32:59;;;;;;;5.65;2.67;;;8.80;99.90;;;;;;5024642;28;20119;-88
2022/11/04 09:35:28;;;;;;;5.18;2.40;;;8.80;99.90;;;;;;5032347;28;20106;-82
2022/11/04 09:37:55;;;;;;;5.70;3.05;;;8.90;99.90;;;;;;5013575;28;20376;-82
2022/11/04 09:40:23;;;;;;;4.60;2.00;;;8.90;99.90;;;;;;5013586;28;20053;-81
2022/11/04 09:43:24;;;;;;;3.95;2.35;;;9.00;99.90;;;;;;5020365;28;20397;-82
2022/11/04 09:45:51;;;;;;;5.75;2.88;;;9.00;99.90;;;;;;5024282;28;20505;-82
2022/11/04 09:48:57;;;;;;;3.15;2.35;;;9.10;99.90;;;;;;4992074;28;20370;-83
2022/11/04 09:51:25;;;;;;;5.38;2.92;;;9.10;99.90;;;;;;5025996;28;20050;-84
2022/11/04 09:54:15;;;;;;;5.40;2.97;;;9.20;99.90;;;;;;5029592;28;20049;-83
2022/11/04 09:56:43;;;;;;;5.90;2.38;;;9.30;99.90;;;;;;5030106;28;20059;-83
2022/11/04 09:59:12;;;;;;;4.10;3.00;;;9.30;99.90;;;;;;5013769;28;20116;-82
2022/11/04 10:01:58;;;;;;;3.53;2.40;;;9.30;99.90;;;;;;5027423;28;20049;-82
2022/11/04 10:04:33;;;;;;;3.25;1.80;;;9.40;99.90;;;;;;5012397;28;20061;-82
2022/11/04 10:07:11;;;;;;;6.03;2.70;;;9.40;99.90;;;;;;5025987;28;20413;-82
2022/11/04 10:09:41;;;;;;;4.07;2.60;;;9.50;99.90;;;;;;5032359;28;20052;-82
2022/11/04 10:12:18;;;;;;;7.13;2.70;;;9.60;99.90;;;;;;5038345;28;20049;-82
2022/11/04 10:15:04;;;;;;;3.85;2.22;;;9.70;99.90;;;;;;5024341;28;20065;-83
2022/11/04 10:17:55;;;;;;;5.65;2.63;;;9.70;99.90;;;;;;5026175;28;20052;-82
2022/11/04 10:20:48;;;;;;;5.38;2.42;;;9.70;99.90;;;;;;5038315;28;20080;-82
2022/11/04 10:23:22;;;;;;;3.00;2.00;;;9.70;99.90;;;;;;5023715;28;20065;-83
2022/11/04 10:25:53;;;;;;;5.50;2.85;;;9.80;99.90;;;;;;5015147;28;20081;-82
2022/11/04 10:28:29;;;;;;;3.60;2.20;;;9.90;99.90;;;;;;5016085;28;20352;-82
2022/11/04 10:30:56;;;;;;;3.22;2.35;;;10.00;99.90;;;;;;5008337;28;20643;-82
2022/11/04 10:33:34;;;;;;;3.70;2.38;;;10.10;99.90;;;;;;5019157;28;20532;-82
2022/11/04 10:36:11;;;;;;;4.25;1.73;;;10.10;99.90;;;;;;5043259;28;20143;-82
2022/11/04 10:38:42;;;;;;;4.90;2.38;;;10.10;99.90;;;;;;5018424;28;20558;-82
2022/11/04 10:41:34;;;;;;;4.20;2.17;;;10.20;99.90;;;;;;5033842;28;20145;-83
2022/11/04 10:44:04;;;;;;;3.20;2.33;;;10.20;99.90;;;;;;5020206;28;20140;-82
2022/11/04 10:46:36;;;;;;;3.63;1.88;;;10.30;99.90;;;;;;5014460;28;20056;-81
2022/11/04 10:49:13;;;;;;;6.82;2.78;;;10.30;99.90;;;;;;5041530;28;20053;-82
2022/11/04 10:51:40;;;;;;;4.80;2.45;;;10.40;99.90;;;;;;5028706;28;20049;-82
2022/11/04 10:54:07;;;;;;;3.28;1.73;;;10.40;99.90;;;;;;5033458;28;20563;-82
2022/11/04 10:56:57;;;;;;;6.15;2.30;;;10.40;99.90;;;;;;5025293;28;20052;-81
2022/11/04 10:59:54;;;;;;;5.72;2.45;;;10.50;99.90;;;;;;5041299;28;20067;-81
2022/11/04 11:02:36;;;;;;;4.40;2.00;;;10.60;99.90;;;;;;5027390;28;20054;-82
2022/11/04 11:05:18;;;;;;;3.65;2.30;;;10.80;99.90;;;;;;5040294;28;20048;-81
2022/11/04 11:07:52;;;;;;;4.45;2.30;;;10.90;99.90;;;;;;5042246;28;20053;-82
2022/11/04 11:10:38;;;;;;;6.68;3.30;;;10.90;99.90;;;;;;5038730;28;20052;-82
2022/11/04 11:13:08;;;;;;;5.07;2.35;;;11.00;99.90;;;;;;5027965;28;20139;-82
2022/11/04 11:15:37;;;;;;;4.32;2.10;;;11.00;99.90;;;;;;5030339;28;20080;-82
2022/11/04 11:18:06;;;;;;;6.63;3.30;;;11.10;99.90;;;;;;5041125;28;20048;-82
2022/11/04 11:20:36;;;;;;;4.43;2.90;;;11.20;99.90;;;;;;5042824;28;20059;-81
2022/11/04 11:23:08;;;;;;;4.47;2.60;;;11.30;99.90;;;;;;5009136;28;20071;-81
2022/11/04 11:25:41;;;;;;;5.13;2.65;;;11.40;99.90;;;;;;5004201;28;21002;-81
2022/11/04 11:28:08;;;;;;;3.78;2.22;;;11.40;99.90;;;;;;5025799;28;20049;-81
2022/11/04 11:30:58;;;;;;;3.15;2.05;;;11.60;99.90;;;;;;4995360;28;20038;-81
2022/11/04 11:33:37;;;;;;;2.92;2.25;;;11.70;99.90;;;;;;5021620;28;20049;-82
2022/11/04 11:36:25;;;;;;;3.65;2.40;;;11.90;99.90;;;;;;5021285;28;20044;-81
2022/11/04 11:39:16;;;;;;;3.17;2.08;;;12.10;99.90;;;;;;5024343;28;20053;-80
2022/11/04 11:41:55;;;;;;;3.63;2.20;;;12.30;99.90;;;;;;5003582;28;20123;-80
2022/11/04 11:44:28;;;;;;;2.78;2.30;;;12.50;99.90;;;;;;5022847;28;20060;-87
2022/11/04 11:46:55;;;;;;;;;;;12.70;99.90;;;;;;5042990;28;20527;-80
2022/11/04 11:49:31;;;;;;;4.70;2.47;;;12.70;99.90;;;;;;5026221;28;20511;-80
2022/11/04 11:52:31;;;;;;;5.00;2.63;;;12.80;99.90;;;;;;5046505;28;20060;-79
2022/11/04 11:55:17;;;;;;;6.05;2.85;;;12.90;99.90;;;;;;5003211;28;20119;-80
2022/11/04 11:58:02;;;;;;;3.55;2.40;;;13.00;99.90;;;;;;5022371;28;20056;-80
2022/11/04 12:00:53;;;;;;;3.40;2.13;;;13.00;99.90;;;;;;5035931;28;20484;-80
2022/11/04 12:03:42;;;;;;;3.50;2.23;;;13.00;99.90;;;;;;5040238;28;20084;-80
2022/11/04 12:06:41;;;;;;;5.38;2.53;;;13.10;99.90;;;;;;5009954;28;20318;-80
2022/11/04 12:09:36;;;;;;;3.20;1.70;;;13.20;99.90;;;;;;5025070;28;20056;-81
2022/11/04 12:12:21;;;;;;;3.17;2.05;;;13.40;99.90;;;;;;5040691;28;20080;-80
2022/11/04 12:14:48;;;;;;;4.40;1.80;;;13.60;99.90;;;;;;5018758;28;20085;-80
2022/11/04 12:17:31;;;;;;;3.70;2.03;;;13.70;99.90;;;;;;5020177;28;20049;-81
2022/11/04 12:20:08;;;;;;;;;;;13.80;99.90;;;;;;5029031;28;20065;-80
2022/11/04 12:22:53;;;;;;;4.43;2.13;;;14.10;99.90;;;;;;5040582;28;19931;-81
2022/11/04 12:25:37;;;;;;;4.00;2.30;;;14.30;99.90;;;;;;5023582;28;20048;-81
2022/11/04 12:28:37;;;;;;;3.03;1.90;;;14.30;99.90;;;;;;5026165;28;20053;-79
2022/11/04 12:31:46;;;;;;;2.80;1.52;;;14.60;99.90;;;;;;5039519;28;20055;-79
2022/11/04 12:34:31;;;;;;;4.13;1.77;;;14.90;99.90;;;;;;5041624;28;20080;-79
2022/11/04 12:37:13;;;;;;;3.85;2.13;;;15.10;99.90;;;;;;5039442;28;20060;-80
2022/11/04 12:39:39;;;;;;;3.30;1.75;;;15.20;99.90;;;;;;5039731;28;20321;-79
2022/11/04 12:42:44;;;;;;;3.40;1.80;;;15.20;99.90;;;;;;5040762;28;20051;-81
2022/11/04 12:45:39;;;;;;;3.80;2.30;;;15.30;99.90;;;;;;5039882;28;20155;-81
2022/11/04 12:48:09;;;;;;;2.28;1.30;;;15.20;99.90;;;;;;5039497;28;20055;-80
2022/11/04 12:50:42;;;;;;;2.38;1.35;;;15.40;99.90;;;;;;5003077;28;20118;-79
2022/11/04 12:53:21;;;;;;;2.97;1.58;;;15.40;99.90;;;;;;5005289;28;20160;-82
2022/11/04 12:55:58;;;;;;;2.40;1.33;;;15.40;99.90;;;;;;5022039;28;20064;-80
2022/11/04 12:58:28;;;;;;;2.55;1.50;;;15.60;99.90;;;;;;5007468;28;20659;-81
2022/11/04 13:00:59;;;;;;;3.35;1.38;;;15.70;99.90;;;;;;5038536;28;20053;-80
2022/11/04 13:03:28;;;;;;;2.35;1.40;;;15.70;99.90;;;;;;5023621;28;20053;-81
2022/11/04 13:06:03;;;;;;;3.45;1.40;;;15.90;99.90;;;;;;5039553;28;20434;-80
2022/11/04 13:08:52;;;;;;;2.38;1.88;;;16.00;99.90;;;;;;5029239;28;20054;-80
2022/11/04 13:11:28;;;;;;;2.45;1.42;;;15.90;99.90;;;;;;5037403;28;20128;-80
2022/11/04 13:14:15;;;;;;;3.30;1.50;;;15.80;99.90;;;;;;5029117;28;20552;-80
2022/11/04 13:16:42;;;;;;;2.63;1.38;;;15.80;99.90;;;;;;5013254;28;20441;-80
2022/11/04 13:19:30;;;;;;;2.05;1.30;;;16.00;99.90;;;;;;5035499;28;20067;-80
2022/11/04 13:21:59;;;;;;;4.35;1.77;;;16.30;99.90;;;;;;5014337;28;20073;-89
2022/11/04 13:24:30;;;;;;;2.80;1.58;;;16.40;99.90;;;;;;4997407;28;20060;-82
2022/11/04 13:27:00;;;;;;;3.42;1.80;;;16.40;99.90;;;;;;5037870;28;20055;-82
2022/11/04 13:29:33;;;;;;;2.55;1.60;;;16.30;99.90;;;;;;5006528;28;20438;-81
2022/11/04 13:32:07;;;;;;;3.40;1.58;;;16.30;99.90;;;;;;5023171;28;20177;-82
2022/11/04 13:35:02;;;;;;;3.03;1.52;;;16.30;99.90;;;;;;5017265;28;20053;-82
2022/11/04 13:37:38;;;;;;;1.85;1.30;;;16.20;99.90;;;;;;5025550;28;20436;-81
2022/11/04 13:40:15;;;;;;;2.90;1.15;;;16.40;99.90;;;;;;5019130;28;20847;-82
2022/11/04 13:45:57;;;;;;;1.67;1.10;;;16.60;99.90;;;;;;5021317;28;20330;-79
2022/11/04 13:48:29;;;;;;;2.67;1.38;;;16.40;99.90;;;;;;5002357;28;20065;-79
2022/11/04 13:51:08;;;;;;;2.38;1.38;;;16.40;99.90;;;;;;5033118;28;20804;-80
2022/11/04 13:53:45;;;;;;;2.30;1.30;;;16.00;99.90;;;;;;5025264;28;20061;-79
2022/11/04 13:56:34;;;;;;;2.47;1.35;;;16.10;99.90;;;;;;5023193;28;20440;-79
2022/11/04 13:59:20;;;;;;;2.40;1.15;;;15.90;99.90;;;;;;5039176;28;20102;-80
2022/11/04 14:01:48;;;;;;;1.58;1.10;;;16.50;99.90;;;;;;5037128;28;20056;-79
2022/11/04 14:04:25;;;;;;;2.22;1.08;;;16.80;99.90;;;;;;5002787;28;20057;-80
2022/11/04 14:06:56;;;;;;;2.33;1.20;;;16.60;99.90;;;;;;5018732;28;20136;-79